Time;durP1;ratioP1;P1;durP2;ratioP2;P2;SDS_P1;SDS_P2;PMS_P1;PMS_P2;Temp;Humidity;BMP_temperature;BMP_pressure;BME280_temperature;BME280_humidity;BME280_pressure;Samples;Min_cycle;Max_cycle;Signal;HPM_P1;HPM_P2
2022/08/01 00:02:17;;;;;;;2.57;2.37;;;20.30;99.90;;;;;;5148420;27;20621;-82
2022/08/01 00:04:45;;;;;;;2.57;2.37;;;20.20;99.90;;;;;;5148294;27;20657;-82
2022/08/01 00:07:14;;;;;;;2.50;2.30;;;20.30;99.90;;;;;;5149277;27;21027;-82
2022/08/01 00:09:41;;;;;;;3.43;2.87;;;20.20;99.90;;;;;;5149497;27;20653;-82
2022/08/01 00:12:08;;;;;;;2.50;2.30;;;20.10;99.90;;;;;;5151264;27;20636;-82
2022/08/01 00:14:35;;;;;;;2.90;2.70;;;20.10;99.90;;;;;;5144587;27;20753;-81
2022/08/01 00:17:01;;;;;;;3.50;2.43;;;20.00;99.90;;;;;;5151389;27;20632;-81
2022/08/01 00:19:28;;;;;;;2.23;2.03;;;20.00;99.90;;;;;;5144807;27;21238;-84
2022/08/01 00:21:56;;;;;;;2.30;2.20;;;20.00;99.90;;;;;;5150361;27;20628;-82
2022/08/01 00:24:23;;;;;;;3.00;2.43;;;19.90;99.90;;;;;;5152959;27;20660;-81
2022/08/01 00:26:50;;;;;;;4.90;2.33;;;19.90;99.90;;;;;;5153972;27;20657;-82
2022/08/01 00:29:17;;;;;;;3.20;2.43;;;19.90;99.90;;;;;;5145232;27;20633;-82
2022/08/01 00:31:44;;;;;;;2.90;2.60;;;19.80;99.90;;;;;;5152083;27;20622;-82
2022/08/01 00:34:10;;;;;;;4.63;2.80;;;19.80;99.90;;;;;;5150279;27;20637;-81
2022/08/01 00:36:37;;;;;;;5.57;2.70;;;19.80;99.90;;;;;;5149927;27;20633;-82
2022/08/01 00:39:06;;;;;;;2.23;2.13;;;19.70;99.90;;;;;;5150535;27;20636;-82
2022/08/01 00:41:32;;;;;;;2.30;2.10;;;19.70;99.90;;;;;;5150876;27;20811;-81
2022/08/01 00:44:02;;;;;;;2.60;2.40;;;19.70;99.90;;;;;;5155359;27;20617;-82
2022/08/01 00:46:29;;;;;;;2.20;2.10;;;19.70;99.90;;;;;;5150732;27;21286;-82
2022/08/01 00:48:56;;;;;;;2.60;2.40;;;19.60;99.90;;;;;;5151958;27;20635;-82
2022/08/01 00:51:23;;;;;;;2.63;2.40;;;19.60;99.90;;;;;;5144500;27;20677;-82
2022/08/01 00:53:51;;;;;;;2.43;2.20;;;19.60;99.90;;;;;;5150832;27;20625;-81
2022/08/01 00:56:20;;;;;;;2.37;2.17;;;19.60;99.90;;;;;;5148562;27;20629;-81
2022/08/01 00:58:47;;;;;;;3.40;2.80;;;19.60;99.90;;;;;;5150492;27;20613;-81
2022/08/01 01:01:14;;;;;;;2.90;2.60;;;19.50;99.90;;;;;;5146680;27;20661;-82
2022/08/01 01:03:41;;;;;;;3.57;3.00;;;19.50;99.90;;;;;;5150448;27;20640;-82
2022/08/01 01:06:23;;;;;;;2.37;2.10;;;19.50;99.90;;;;;;5147120;27;20677;-82
2022/08/01 01:09:08;;;;;;;2.73;2.53;;;19.60;99.90;;;;;;5152015;27;20620;-81
2022/08/01 01:11:45;;;;;;;3.20;2.90;;;19.50;99.90;;;;;;5143718;27;20610;-81
2022/08/01 01:14:24;;;;;;;3.17;2.97;;;19.50;99.90;;;;;;5141196;27;20617;-82
2022/08/01 01:16:54;;;;;;;2.90;2.70;;;19.50;99.90;;;;;;5140696;27;20629;-81
2022/08/01 01:19:25;;;;;;;2.60;2.40;;;19.50;99.90;;;;;;5151973;27;20656;-81
2022/08/01 01:22:12;;;;;;;2.90;2.70;;;19.40;99.90;;;;;;5153541;27;20621;-81
2022/08/01 01:24:45;;;;;;;2.30;2.10;;;19.40;99.90;;;;;;5149032;27;20692;-81
2022/08/01 01:27:24;;;;;;;3.80;2.80;;;19.40;99.90;;;;;;5150377;27;20659;-82
2022/08/01 01:29:56;;;;;;;2.80;2.60;;;19.40;99.90;;;;;;5153209;27;20645;-82
2022/08/01 01:32:28;;;;;;;3.40;2.50;;;19.40;99.90;;;;;;5147599;27;20718;-82
2022/08/01 01:34:57;;;;;;;3.20;2.90;;;19.40;99.90;;;;;;5145731;27;21015;-81
2022/08/01 01:37:27;;;;;;;3.20;3.00;;;19.40;99.90;;;;;;5150231;27;20613;-81
2022/08/01 01:39:55;;;;;;;3.07;2.73;;;19.40;99.90;;;;;;5150782;27;21220;-82
2022/08/01 01:42:25;;;;;;;2.83;2.60;;;19.40;99.90;;;;;;5149816;27;20717;-82
2022/08/01 01:44:56;;;;;;;3.33;3.13;;;19.40;99.90;;;;;;5152327;27;20617;-82
2022/08/01 01:47:24;;;;;;;3.47;2.97;;;19.50;99.90;;;;;;5149779;27;20668;-82
2022/08/01 01:49:53;;;;;;;2.50;2.30;;;19.50;99.90;;;;;;5149288;27;20748;-81
2022/08/01 01:52:21;;;;;;;2.83;2.60;;;19.50;99.90;;;;;;5148006;27;20605;-82
2022/08/01 01:54:50;;;;;;;2.97;2.77;;;19.60;99.90;;;;;;5145060;27;20644;-81
2022/08/01 01:57:19;;;;;;;4.23;2.90;;;19.60;99.90;;;;;;5148235;27;20625;-82
2022/08/01 01:59:48;;;;;;;3.00;2.80;;;19.60;99.90;;;;;;5148013;27;20743;-82
2022/08/01 02:02:18;;;;;;;2.60;2.50;;;19.60;99.90;;;;;;5147826;27;20621;-81
2022/08/01 02:04:47;;;;;;;3.53;2.50;;;19.70;99.90;;;;;;5146298;27;20593;-82
2022/08/01 02:07:18;;;;;;;3.20;3.00;;;19.80;99.90;;;;;;5148955;27;20710;-82
2022/08/01 02:09:46;;;;;;;2.83;2.63;;;19.80;99.90;;;;;;5149091;27;20653;-82
2022/08/01 02:12:15;;;;;;;2.90;2.70;;;19.80;99.90;;;;;;5147767;27;20629;-82
2022/08/01 02:14:44;;;;;;;3.20;3.00;;;19.80;99.90;;;;;;5146775;27;20621;-81
2022/08/01 02:17:13;;;;;;;2.97;2.77;;;19.70;99.90;;;;;;5141947;27;20652;-82
2022/08/01 02:19:41;;;;;;;2.87;2.67;;;19.80;99.90;;;;;;5147558;27;20649;-82
2022/08/01 02:22:12;;;;;;;3.27;2.80;;;19.70;99.90;;;;;;5148003;27;20625;-81
2022/08/01 02:24:44;;;;;;;3.33;2.90;;;19.70;99.90;;;;;;5143605;27;21787;-82
2022/08/01 02:27:16;;;;;;;3.50;2.77;;;19.60;99.90;;;;;;5149496;27;20649;-81
2022/08/01 02:29:48;;;;;;;4.20;3.30;;;19.60;99.90;;;;;;5144313;27;20712;-82
2022/08/01 02:32:21;;;;;;;2.80;2.60;;;19.50;99.90;;;;;;5149021;27;20609;-82
2022/08/01 02:34:51;;;;;;;3.47;3.10;;;19.50;99.90;;;;;;5149297;27;20613;-82
2022/08/01 02:37:19;;;;;;;2.80;2.60;;;19.40;99.90;;;;;;5146778;27;21175;-82
2022/08/01 02:39:49;;;;;;;3.53;3.30;;;19.40;99.90;;;;;;5148841;27;20664;-82
2022/08/01 02:42:17;;;;;;;2.87;2.70;;;19.30;99.90;;;;;;5146830;27;20626;-82
2022/08/01 02:44:45;;;;;;;3.73;3.53;;;19.20;99.90;;;;;;5146089;27;20633;-82
2022/08/01 02:47:12;;;;;;;2.60;2.40;;;19.20;99.90;;;;;;5145753;27;20668;-82
2022/08/01 02:49:43;;;;;;;3.20;3.00;;;19.10;99.90;;;;;;5149298;27;20657;-82
2022/08/01 02:52:14;;;;;;;3.93;3.63;;;19.10;99.90;;;;;;5150734;27;20629;-82
2022/08/01 02:54:42;;;;;;;2.90;2.70;;;19.10;99.90;;;;;;5148446;27;20625;-82
2022/08/01 02:57:11;;;;;;;3.60;2.67;;;19.10;99.90;;;;;;5146247;27;20620;-81
2022/08/01 02:59:39;;;;;;;3.20;2.90;;;19.10;99.90;;;;;;5146337;27;20652;-82
2022/08/01 03:02:07;;;;;;;3.40;3.20;;;19.10;99.90;;;;;;5146873;27;20629;-82
2022/08/01 03:04:36;;;;;;;3.20;3.00;;;19.10;99.90;;;;;;5140463;27;20994;-82
2022/08/01 03:07:05;;;;;;;3.87;3.30;;;19.10;99.90;;;;;;5147948;27;20665;-81
2022/08/01 03:09:37;;;;;;;3.60;3.30;;;19.00;99.90;;;;;;5144385;27;20656;-82
2022/08/01 03:12:07;;;;;;;3.03;2.83;;;19.00;99.90;;;;;;5143854;27;20632;-82
2022/08/01 03:14:39;;;;;;;3.20;2.90;;;19.10;99.90;;;;;;5140221;27;21148;-82
2022/08/01 03:17:09;;;;;;;3.63;3.33;;;19.10;99.90;;;;;;5148148;27;21076;-82
2022/08/01 03:19:37;;;;;;;3.20;2.90;;;19.10;99.90;;;;;;5141641;27;20649;-82
2022/08/01 03:22:07;;;;;;;2.83;2.60;;;19.10;99.90;;;;;;5146899;27;20720;-81
2022/08/01 03:24:37;;;;;;;3.53;2.40;;;19.20;99.90;;;;;;5147274;27;20628;-82
2022/08/01 03:27:05;;;;;;;5.77;2.80;;;19.20;99.90;;;;;;5146969;27;21331;-82
2022/08/01 03:29:33;;;;;;;2.80;2.60;;;19.30;99.90;;;;;;5147468;27;20769;-82
2022/08/01 03:32:02;;;;;;;3.00;2.80;;;19.30;99.90;;;;;;5147484;27;20678;-81
2022/08/01 03:34:29;;;;;;;2.50;2.33;;;19.30;99.90;;;;;;5146268;27;20626;-81
2022/08/01 03:37:03;;;;;;;2.60;2.50;;;19.30;99.90;;;;;;5142906;27;20618;-81
2022/08/01 03:39:34;;;;;;;2.37;2.27;;;19.40;99.90;;;;;;5148493;27;20650;-81
2022/08/01 03:42:08;;;;;;;2.87;2.70;;;19.40;99.90;;;;;;5147347;27;20664;-81
2022/08/01 03:44:38;;;;;;;2.40;2.13;;;19.50;99.90;;;;;;5145070;27;20674;-82
2022/08/01 03:47:09;;;;;;;2.77;2.53;;;19.50;99.90;;;;;;5148827;27;20657;-81
2022/08/01 03:49:44;;;;;;;3.17;2.50;;;19.60;99.90;;;;;;5142302;27;20632;-80
2022/08/01 03:52:13;;;;;;;2.60;2.40;;;19.50;99.90;;;;;;5146787;27;20637;-81
2022/08/01 03:54:45;;;;;;;2.50;2.20;;;19.50;99.90;;;;;;5145826;27;20985;-81
2022/08/01 03:57:14;;;;;;;2.43;2.23;;;19.50;99.90;;;;;;5145422;27;20625;-81
2022/08/01 03:59:41;;;;;;;3.00;2.70;;;19.50;99.90;;;;;;5142021;27;20621;-81
2022/08/01 04:02:08;;;;;;;3.97;2.67;;;19.60;99.90;;;;;;5145649;27;20657;-81
2022/08/01 04:04:36;;;;;;;4.20;3.33;;;19.50;99.90;;;;;;5142612;27;20762;-81
2022/08/01 04:07:06;;;;;;;2.73;2.53;;;19.60;99.90;;;;;;5147385;27;20641;-81
2022/08/01 04:09:33;;;;;;;2.90;2.20;;;19.60;99.90;;;;;;5144820;27;20633;-81
2022/08/01 04:12:00;;;;;;;2.17;2.07;;;19.60;99.90;;;;;;5147209;27;20739;-81
2022/08/01 04:14:29;;;;;;;3.30;3.00;;;19.60;99.90;;;;;;5145788;27;20624;-81
2022/08/01 04:16:56;;;;;;;2.70;2.50;;;19.60;99.90;;;;;;5141129;27;20637;-81
2022/08/01 04:19:23;;;;;;;4.13;2.17;;;19.60;99.90;;;;;;5148460;27;20631;-82
2022/08/01 04:21:50;;;;;;;3.97;3.17;;;19.70;99.90;;;;;;5145436;27;21202;-81
2022/08/01 04:24:19;;;;;;;3.17;2.87;;;19.70;99.90;;;;;;5144577;27;20625;-82
2022/08/01 04:26:48;;;;;;;2.57;2.23;;;19.70;99.90;;;;;;5145772;27;20625;-81
2022/08/01 04:29:18;;;;;;;2.33;2.10;;;19.70;99.90;;;;;;5138201;27;20618;-81
2022/08/01 04:31:48;;;;;;;2.70;2.43;;;19.80;99.90;;;;;;5145783;27;21235;-81
2022/08/01 04:34:18;;;;;;;2.93;2.63;;;19.80;99.90;;;;;;5144958;27;20625;-81
2022/08/01 04:36:46;;;;;;;4.73;3.00;;;19.80;99.90;;;;;;5147180;27;20629;-82
2022/08/01 04:39:15;;;;;;;5.30;3.40;;;19.80;99.90;;;;;;5145979;27;20637;-81
2022/08/01 04:41:42;;;;;;;5.57;3.00;;;19.70;99.90;;;;;;5148041;27;20617;-81
2022/08/01 04:44:09;;;;;;;3.57;3.37;;;19.60;99.90;;;;;;5143648;27;20648;-82
2022/08/01 04:46:37;;;;;;;3.90;3.00;;;19.60;99.90;;;;;;5144041;27;20629;-81
2022/08/01 04:49:08;;;;;;;3.60;3.30;;;19.60;99.90;;;;;;5145059;27;20753;-81
2022/08/01 04:51:36;;;;;;;4.80;3.27;;;19.60;99.90;;;;;;5146206;27;20689;-82
2022/08/01 04:54:03;;;;;;;3.40;3.20;;;19.50;99.90;;;;;;5141290;27;20962;-81
2022/08/01 04:56:30;;;;;;;4.03;2.67;;;19.50;99.90;;;;;;5150647;27;20669;-83
2022/08/01 05:01:41;;;;;;;3.57;3.37;;;19.40;99.90;;;;;;5145104;27;20620;-82
2022/08/01 05:04:09;;;;;;;3.37;3.07;;;19.40;99.90;;;;;;5146992;27;20637;-81
2022/08/01 05:06:36;;;;;;;3.77;3.47;;;19.50;99.90;;;;;;5142830;27;21151;-81
2022/08/01 05:09:03;;;;;;;3.70;3.40;;;19.50;99.90;;;;;;5148885;27;21239;-81
2022/08/01 05:11:30;;;;;;;5.40;3.17;;;19.50;99.90;;;;;;5150043;27;21005;-82
2022/08/01 05:13:57;;;;;;;3.70;3.40;;;19.50;99.90;;;;;;5147980;27;20663;-82
2022/08/01 05:16:24;;;;;;;4.57;4.20;;;19.60;99.90;;;;;;5143546;27;20632;-82
2022/08/01 05:18:51;;;;;;;3.80;3.50;;;19.60;99.90;;;;;;5150497;27;20826;-82
2022/08/01 05:21:20;;;;;;;4.37;3.43;;;19.70;99.90;;;;;;5150151;27;20968;-82
2022/08/01 05:23:48;;;;;;;3.40;3.20;;;19.60;99.90;;;;;;5150067;27;20652;-82
2022/08/01 05:26:15;;;;;;;6.23;3.80;;;19.70;99.90;;;;;;5149551;27;20713;-82
2022/08/01 05:28:42;;;;;;;4.47;2.93;;;19.60;99.90;;;;;;5150953;27;20665;-81
2022/08/01 05:31:09;;;;;;;3.07;2.77;;;19.60;99.90;;;;;;5149311;27;21171;-82
2022/08/01 05:33:37;;;;;;;4.13;3.83;;;19.70;99.90;;;;;;5142500;27;20637;-82
2022/08/01 05:36:04;;;;;;;3.43;3.13;;;19.80;99.90;;;;;;5148462;27;20625;-81
2022/08/01 05:38:32;;;;;;;3.90;3.60;;;19.90;99.90;;;;;;5149387;27;20702;-82
2022/08/01 05:40:59;;;;;;;3.63;3.33;;;20.00;99.90;;;;;;5149199;27;20991;-82
2022/08/01 05:43:26;;;;;;;3.60;3.07;;;20.10;99.90;;;;;;5148067;27;20649;-81
2022/08/01 05:45:53;;;;;;;3.20;2.63;;;20.10;99.90;;;;;;5147612;27;20626;-82
2022/08/01 05:48:20;;;;;;;5.73;2.57;;;20.30;99.90;;;;;;5148423;27;20697;-81
2022/08/01 05:50:47;;;;;;;3.63;3.03;;;20.30;99.90;;;;;;5149012;27;20986;-82
2022/08/01 05:53:14;;;;;;;3.03;2.83;;;20.40;99.90;;;;;;5147413;27;20772;-82
2022/08/01 05:55:42;;;;;;;3.60;3.10;;;20.50;99.90;;;;;;5145564;27;20637;-80
2022/08/01 05:58:09;;;;;;;3.70;3.40;;;20.50;99.90;;;;;;5145862;27;20660;-81
2022/08/01 06:00:36;;;;;;;4.80;3.20;;;20.50;99.90;;;;;;5147326;27;20611;-82
2022/08/01 06:03:03;;;;;;;4.10;2.97;;;20.60;99.90;;;;;;5142920;27;20657;-81
2022/08/01 06:05:30;;;;;;;3.80;3.50;;;20.60;99.90;;;;;;5145856;27;20626;-81
2022/08/01 06:07:57;;;;;;;4.43;2.77;;;20.70;99.90;;;;;;5144623;27;20750;-81
2022/08/01 06:10:24;;;;;;;4.13;3.73;;;20.90;99.90;;;;;;5147897;27;20732;-81
2022/08/01 06:12:52;;;;;;;4.10;3.77;;;21.00;99.90;;;;;;5148435;27;20661;-80
2022/08/01 06:15:19;;;;;;;2.97;2.77;;;21.10;99.90;;;;;;5147413;27;21326;-81
2022/08/01 06:17:46;;;;;;;4.57;2.63;;;21.20;99.90;;;;;;5148686;27;20682;-81
2022/08/01 06:20:13;;;;;;;4.50;3.50;;;21.30;99.90;;;;;;5148485;27;20633;-82
2022/08/01 06:22:40;;;;;;;4.90;3.57;;;21.30;99.90;;;;;;5147736;27;21224;-81
2022/08/01 06:25:08;;;;;;;6.43;3.50;;;21.40;99.90;;;;;;5146192;27;20640;-81
2022/08/01 06:27:35;;;;;;;4.17;3.27;;;21.50;99.90;;;;;;5147570;27;20660;-81
2022/08/01 06:30:04;;;;;;;3.73;3.37;;;21.50;99.90;;;;;;5141798;27;20633;-81
2022/08/01 06:32:31;;;;;;;3.33;2.80;;;21.50;99.90;;;;;;5145845;27;20656;-80
2022/08/01 06:34:58;;;;;;;5.50;3.07;;;21.70;99.90;;;;;;5146249;27;20656;-80
2022/08/01 06:37:29;;;;;;;4.20;3.10;;;21.80;99.90;;;;;;5146396;27;20614;-82
2022/08/01 06:39:55;;;;;;;2.93;2.63;;;21.90;99.90;;;;;;5146364;27;20625;-81
2022/08/01 06:42:22;;;;;;;3.20;3.00;;;22.00;99.90;;;;;;5140983;27;20633;-81
2022/08/01 06:44:49;;;;;;;3.40;3.10;;;21.90;99.90;;;;;;5147318;27;20655;-81
2022/08/01 06:47:18;;;;;;;3.77;3.03;;;21.90;99.90;;;;;;5143813;27;20617;-80
2022/08/01 06:49:44;;;;;;;2.83;2.53;;;22.00;99.90;;;;;;5148871;27;20653;-80
2022/08/01 06:52:11;;;;;;;3.13;2.80;;;22.00;99.90;;;;;;5148097;27;20621;-81
2022/08/01 06:54:38;;;;;;;3.13;2.93;;;22.20;99.90;;;;;;5144141;27;20654;-80
2022/08/01 06:57:06;;;;;;;2.60;2.37;;;22.20;99.90;;;;;;5145671;27;20625;-81
2022/08/01 06:59:33;;;;;;;3.60;3.00;;;22.20;99.90;;;;;;5147865;27;21082;-81
2022/08/01 07:02:00;;;;;;;2.57;2.37;;;22.30;99.90;;;;;;5143088;27;20626;-81
2022/08/01 07:04:28;;;;;;;5.77;2.33;;;22.40;99.90;;;;;;5145085;27;21086;-81
2022/08/01 07:06:55;;;;;;;3.47;2.07;;;22.60;99.90;;;;;;5148492;27;20636;-81
2022/08/01 07:09:22;;;;;;;3.40;2.00;;;22.70;99.90;;;;;;5142564;27;21223;-81
2022/08/01 07:11:50;;;;;;;2.20;1.80;;;22.80;99.90;;;;;;5145840;27;21118;-81
2022/08/01 07:14:17;;;;;;;1.87;1.77;;;23.00;99.90;;;;;;5145086;27;20749;-81
2022/08/01 07:16:43;;;;;;;4.53;2.20;;;23.10;99.90;;;;;;5145872;27;20629;-81
2022/08/01 07:19:10;;;;;;;2.97;2.17;;;23.20;99.90;;;;;;5147481;27;20736;-81
2022/08/01 07:21:39;;;;;;;2.60;2.40;;;23.40;99.90;;;;;;5146595;27;20959;-81
2022/08/01 07:24:06;;;;;;;4.80;2.07;;;23.50;99.90;;;;;;5148011;27;20660;-81
2022/08/01 07:26:34;;;;;;;3.60;2.00;;;23.70;99.90;;;;;;5147318;27;21156;-81
2022/08/01 07:29:00;;;;;;;6.93;1.90;;;23.80;99.90;;;;;;5146043;27;20668;-81
2022/08/01 07:31:27;;;;;;;3.73;2.07;;;23.90;99.90;;;;;;5140116;27;20625;-81
2022/08/01 07:33:55;;;;;;;1.93;1.80;;;24.10;99.90;;;;;;5139018;27;20665;-81
2022/08/01 07:36:22;;;;;;;2.27;1.93;;;24.30;99.90;;;;;;5143880;27;20625;-81
2022/08/01 07:38:50;;;;;;;1.80;1.70;;;24.50;99.90;;;;;;5143803;27;20618;-81
2022/08/01 07:41:17;;;;;;;1.63;1.53;;;24.50;99.90;;;;;;5142607;27;20616;-81
2022/08/01 07:43:45;;;;;;;1.57;1.47;;;24.60;99.90;;;;;;5146161;27;20771;-81
2022/08/01 07:46:11;;;;;;;2.30;1.70;;;24.60;99.90;;;;;;5144795;27;20709;-81
2022/08/01 07:48:38;;;;;;;1.33;1.23;;;24.70;99.90;;;;;;5141268;27;20665;-81
2022/08/01 07:51:05;;;;;;;1.70;1.60;;;24.70;99.90;;;;;;5144902;27;21043;-81
2022/08/01 07:53:32;;;;;;;1.80;1.60;;;24.80;99.90;;;;;;5145775;27;20645;-81
2022/08/01 07:56:02;;;;;;;2.87;1.20;;;24.90;99.90;;;;;;5145286;27;21195;-81
2022/08/01 07:58:30;;;;;;;4.10;2.47;;;25.10;99.90;;;;;;5145842;27;21271;-81
2022/08/01 08:00:56;;;;;;;1.83;1.70;;;25.20;99.90;;;;;;5142471;27;20603;-81
2022/08/01 08:03:23;;;;;;;2.43;1.87;;;25.40;99.90;;;;;;5142539;27;20659;-81
2022/08/01 08:05:50;;;;;;;1.87;1.77;;;25.50;99.80;;;;;;5136807;27;20626;-80
2022/08/01 08:08:18;;;;;;;2.07;1.77;;;25.50;99.60;;;;;;5144500;27;20664;-81
2022/08/01 08:10:45;;;;;;;1.47;1.37;;;25.50;99.50;;;;;;5140116;27;21162;-81
2022/08/01 08:13:13;;;;;;;1.83;1.73;;;25.50;99.10;;;;;;5141587;27;20638;-81
2022/08/01 08:15:40;;;;;;;1.70;1.60;;;25.60;99.40;;;;;;5144011;27;21263;-81
2022/08/01 08:18:07;;;;;;;4.97;1.63;;;25.60;99.10;;;;;;5143425;27;20629;-81
2022/08/01 08:20:34;;;;;;;2.50;2.23;;;25.80;99.20;;;;;;5140071;27;20636;-80
2022/08/01 08:23:01;;;;;;;1.77;1.67;;;25.90;98.50;;;;;;5142034;27;20661;-81
2022/08/01 08:25:28;;;;;;;1.77;1.67;;;25.90;98.40;;;;;;5144967;27;20644;-81
2022/08/01 08:27:55;;;;;;;2.97;1.80;;;26.00;98.30;;;;;;5144244;27;20618;-81
2022/08/01 08:30:23;;;;;;;2.60;1.67;;;26.10;98.00;;;;;;5147297;27;20669;-81
2022/08/01 08:32:52;;;;;;;1.93;1.80;;;26.20;97.50;;;;;;5149720;27;21316;-81
2022/08/01 08:35:19;;;;;;;1.97;1.83;;;26.30;97.20;;;;;;5149732;27;20621;-81
2022/08/01 08:37:46;;;;;;;3.03;1.93;;;26.40;97.00;;;;;;5150839;27;21179;-81
2022/08/01 08:40:13;;;;;;;2.03;1.20;;;26.50;96.70;;;;;;5150578;27;20625;-81
2022/08/01 08:42:41;;;;;;;1.90;1.80;;;26.50;96.20;;;;;;5129787;27;20629;-81
2022/08/01 08:45:09;;;;;;;2.17;1.97;;;26.60;96.30;;;;;;5149592;27;21035;-81
2022/08/01 08:47:37;;;;;;;2.07;1.87;;;26.60;96.30;;;;;;5150066;27;20621;-81
2022/08/01 08:50:06;;;;;;;2.57;1.70;;;26.60;96.30;;;;;;5147675;27;20694;-81
2022/08/01 08:52:38;;;;;;;2.40;2.20;;;26.70;96.30;;;;;;5148568;27;20633;-81
2022/08/01 08:55:07;;;;;;;1.80;1.70;;;26.70;96.00;;;;;;5145637;27;20618;-81
2022/08/01 08:57:34;;;;;;;4.63;2.10;;;26.90;95.70;;;;;;5148138;27;20637;-81
2022/08/01 09:00:01;;;;;;;2.03;1.80;;;26.90;95.50;;;;;;5148877;27;20621;-81
2022/08/01 09:02:28;;;;;;;1.80;1.70;;;27.00;95.10;;;;;;5140511;27;20625;-81
2022/08/01 09:04:56;;;;;;;2.43;2.00;;;27.10;94.80;;;;;;5139123;27;20748;-81
2022/08/01 09:07:25;;;;;;;2.23;1.90;;;27.20;95.00;;;;;;5142822;27;20624;-81
2022/08/01 09:09:52;;;;;;;3.90;2.13;;;27.30;94.40;;;;;;5146053;27;20664;-81
2022/08/01 09:12:20;;;;;;;2.33;2.10;;;27.30;94.90;;;;;;5144535;27;20719;-81
2022/08/01 09:14:49;;;;;;;2.97;2.67;;;27.30;94.40;;;;;;5145944;27;20655;-81
2022/08/01 09:17:16;;;;;;;3.27;2.73;;;27.40;94.50;;;;;;5146055;27;21081;-81
2022/08/01 09:19:45;;;;;;;4.70;2.73;;;27.40;94.00;;;;;;5145978;27;20632;-81
2022/08/01 09:22:17;;;;;;;2.73;2.53;;;27.50;94.10;;;;;;5143848;27;20628;-81
2022/08/01 09:24:58;;;;;;;3.27;2.80;;;27.60;94.50;;;;;;5145336;27;20706;-81
2022/08/01 09:27:25;;;;;;;4.70;3.83;;;27.60;94.00;;;;;;5145032;27;21159;-81
2022/08/01 09:29:53;;;;;;;5.40;4.97;;;27.80;94.00;;;;;;5145677;27;20668;-81
2022/08/01 09:32:20;;;;;;;6.37;4.50;;;27.70;93.10;;;;;;5146143;27;21195;-81
2022/08/01 09:34:47;;;;;;;4.63;4.23;;;27.70;93.00;;;;;;5145678;27;20656;-81
2022/08/01 09:37:17;;;;;;;4.63;4.23;;;27.60;93.30;;;;;;5144810;27;20656;-82
2022/08/01 09:39:45;;;;;;;4.37;3.83;;;27.70;93.30;;;;;;5145026;27;20994;-81
2022/08/01 09:42:23;;;;;;;4.20;3.90;;;27.80;93.10;;;;;;5147178;27;20636;-81
2022/08/01 09:44:51;;;;;;;4.00;3.70;;;27.70;93.10;;;;;;5146924;27;20601;-81
2022/08/01 09:47:20;;;;;;;3.93;3.53;;;27.70;92.80;;;;;;5145198;27;21352;-81
2022/08/01 09:49:54;;;;;;;4.73;4.33;;;27.60;93.00;;;;;;5140190;27;20665;-81
2022/08/01 09:52:25;;;;;;;6.70;3.70;;;27.70;93.10;;;;;;5129096;27;20633;-81
2022/08/01 09:54:54;;;;;;;5.10;4.60;;;27.80;93.30;;;;;;5146300;27;20999;-81
2022/08/01 09:57:22;;;;;;;4.07;3.67;;;27.90;92.80;;;;;;5144548;27;21035;-81
2022/08/01 09:59:51;;;;;;;4.07;3.77;;;27.90;92.60;;;;;;5146796;27;20990;-81
2022/08/01 10:02:29;;;;;;;4.23;3.83;;;28.00;93.00;;;;;;5143573;27;20613;-81
2022/08/01 10:04:56;;;;;;;4.40;4.03;;;28.10;92.60;;;;;;5141690;27;20620;-81
2022/08/01 10:07:24;;;;;;;5.13;4.73;;;28.20;92.80;;;;;;5148052;27;20645;-81
2022/08/01 10:09:51;;;;;;;4.67;4.20;;;28.20;92.50;;;;;;5145363;27;20663;-81
2022/08/01 10:12:20;;;;;;;4.50;4.20;;;28.20;92.50;;;;;;5148278;27;20629;-81
2022/08/01 10:14:50;;;;;;;5.10;4.70;;;28.30;92.90;;;;;;5143783;27;20622;-81
2022/08/01 10:17:19;;;;;;;5.30;4.80;;;28.20;92.30;;;;;;5138915;27;20653;-81
2022/08/01 10:19:47;;;;;;;4.87;4.47;;;28.20;92.10;;;;;;5146380;27;20960;-81
2022/08/01 10:22:16;;;;;;;4.37;4.07;;;28.00;92.00;;;;;;5144724;27;20686;-81
2022/08/01 10:24:47;;;;;;;7.17;4.00;;;28.10;92.40;;;;;;5143071;27;20740;-81
2022/08/01 10:27:18;;;;;;;7.00;3.40;;;28.30;93.00;;;;;;5143905;27;21048;-81
2022/08/01 10:30:03;;;;;;;4.20;3.80;;;28.40;92.50;;;;;;5144636;27;20684;-81
2022/08/01 10:32:30;;;;;;;4.00;3.70;;;28.60;92.10;;;;;;5143620;27;20994;-81
2022/08/01 10:34:58;;;;;;;4.03;3.63;;;28.70;91.50;;;;;;5141729;27;20618;-80
2022/08/01 10:37:25;;;;;;;4.23;3.93;;;28.70;91.70;;;;;;5144645;27;20653;-81
2022/08/01 10:39:54;;;;;;;4.90;4.50;;;28.70;91.90;;;;;;5142236;27;20625;-80
2022/08/01 10:42:21;;;;;;;5.47;4.83;;;28.80;90.90;;;;;;5148640;27;20624;-81
2022/08/01 10:44:49;;;;;;;5.20;4.80;;;28.70;91.00;;;;;;5148442;27;20628;-81
2022/08/01 10:47:21;;;;;;;4.90;4.47;;;28.60;91.20;;;;;;5143657;27;20650;-81
2022/08/01 10:49:52;;;;;;;4.60;4.23;;;28.70;90.80;;;;;;5144223;27;20672;-82
2022/08/01 10:52:19;;;;;;;4.50;4.20;;;28.90;90.40;;;;;;5146070;27;20609;-81
2022/08/01 10:54:46;;;;;;;3.40;3.20;;;29.00;90.00;;;;;;5148657;27;20637;-81
2022/08/01 10:57:17;;;;;;;4.30;3.93;;;29.10;90.10;;;;;;5148296;27;20768;-82
2022/08/01 10:59:53;;;;;;;3.47;3.20;;;29.30;90.00;;;;;;5143985;27;20671;-81
2022/08/01 11:02:28;;;;;;;3.63;3.23;;;29.60;88.80;;;;;;5149778;27;21291;-81
2022/08/01 11:04:58;;;;;;;3.70;3.40;;;29.60;87.90;;;;;;5146897;27;20655;-81
2022/08/01 11:07:39;;;;;;;3.40;3.10;;;29.50;88.20;;;;;;5144072;27;20649;-80
2022/08/01 11:10:16;;;;;;;4.63;3.00;;;29.60;88.90;;;;;;5149112;27;20650;-81
2022/08/01 11:12:44;;;;;;;2.93;2.63;;;29.50;88.90;;;;;;5144898;27;20652;-80
2022/08/01 11:15:26;;;;;;;3.27;3.07;;;29.40;88.50;;;;;;5145967;27;20629;-80
2022/08/01 11:17:54;;;;;;;2.67;2.47;;;29.40;88.60;;;;;;5143873;27;21052;-81
2022/08/01 11:20:22;;;;;;;4.77;3.17;;;29.30;88.30;;;;;;5144516;27;20632;-81
2022/08/01 11:23:25;;;;;;;3.47;3.20;;;29.20;88.50;;;;;;5144876;27;20629;-81
2022/08/01 11:26:17;;;;;;;3.43;2.60;;;29.10;87.10;;;;;;5140632;27;20648;-80
2022/08/01 11:29:07;;;;;;;4.10;3.20;;;29.10;87.80;;;;;;5147088;27;20734;-81
2022/08/01 11:31:34;;;;;;;2.80;2.60;;;29.10;88.00;;;;;;5147565;27;20621;-81
2022/08/01 11:34:02;;;;;;;2.50;2.30;;;29.20;87.70;;;;;;5147356;27;20625;-80
2022/08/01 11:36:30;;;;;;;2.90;2.70;;;29.30;87.80;;;;;;5143777;27;21100;-80
2022/08/01 11:39:18;;;;;;;2.77;2.67;;;29.50;87.30;;;;;;5145083;27;20625;-80
2022/08/01 11:41:46;;;;;;;2.67;2.50;;;29.80;86.60;;;;;;5146373;27;20621;-81
2022/08/01 11:44:17;;;;;;;4.43;2.87;;;29.90;85.50;;;;;;5148274;27;20629;-81
2022/08/01 11:46:56;;;;;;;4.43;3.10;;;29.80;84.50;;;;;;5147741;27;20649;-81
2022/08/01 11:49:28;;;;;;;3.27;3.07;;;29.70;84.30;;;;;;5145759;27;20806;-81
2022/08/01 11:52:02;;;;;;;3.40;3.20;;;29.60;84.50;;;;;;5142976;27;20648;-81
2022/08/01 11:54:31;;;;;;;2.73;2.53;;;29.60;84.80;;;;;;5144174;27;20625;-81
2022/08/01 11:56:59;;;;;;;2.37;2.27;;;29.50;84.60;;;;;;5148029;27;20653;-81
2022/08/01 11:59:29;;;;;;;2.77;2.53;;;29.30;84.50;;;;;;5148054;27;21241;-81
2022/08/01 12:01:56;;;;;;;2.90;2.70;;;29.10;84.40;;;;;;5147111;27;20626;-81
2022/08/01 12:04:23;;;;;;;2.53;2.33;;;29.00;85.80;;;;;;5149354;27;21195;-81
2022/08/01 12:06:50;;;;;;;3.00;2.57;;;29.00;85.90;;;;;;5152169;27;20664;-81
2022/08/01 12:09:23;;;;;;;3.70;2.83;;;28.90;84.80;;;;;;5157332;27;20624;-81
2022/08/01 12:11:50;;;;;;;2.80;2.60;;;28.80;84.40;;;;;;5148562;27;21233;-81
2022/08/01 12:14:20;;;;;;;3.57;2.43;;;28.80;84.80;;;;;;5149526;27;20636;-81
2022/08/01 12:16:53;;;;;;;2.60;2.40;;;29.00;85.20;;;;;;5145282;27;20752;-81
2022/08/01 12:19:22;;;;;;;3.47;3.17;;;29.30;84.30;;;;;;5148882;27;20731;-81
2022/08/01 12:22:08;;;;;;;2.93;2.73;;;29.50;83.60;;;;;;5149740;27;20617;-81
2022/08/01 12:24:36;;;;;;;2.87;2.67;;;29.70;83.00;;;;;;5151170;27;20631;-81
2022/08/01 12:27:03;;;;;;;5.43;2.97;;;30.00;82.10;;;;;;5151387;27;20665;-81
2022/08/01 12:29:38;;;;;;;5.03;2.63;;;30.00;82.30;;;;;;5144843;27;21147;-81
2022/08/01 12:32:23;;;;;;;2.50;2.30;;;30.20;83.10;;;;;;5152297;27;20640;-81
2022/08/01 12:34:49;;;;;;;3.33;2.47;;;30.30;82.70;;;;;;5145981;27;20625;-81
2022/08/01 12:37:17;;;;;;;2.67;2.37;;;30.60;82.90;;;;;;5148236;27;20655;-82
2022/08/01 12:39:45;;;;;;;2.50;2.40;;;31.20;81.10;;;;;;5150815;27;20614;-81
2022/08/01 12:42:13;;;;;;;3.80;3.60;;;31.80;79.60;;;;;;5141285;27;20731;-81
2022/08/01 12:44:41;;;;;;;5.33;4.60;;;32.40;77.70;;;;;;5150891;27;20620;-81
2022/08/01 12:47:11;;;;;;;4.60;4.40;;;32.70;76.40;;;;;;5151167;27;20645;-81
2022/08/01 12:49:38;;;;;;;4.20;4.00;;;32.70;74.50;;;;;;5147571;27;20639;-80
2022/08/01 12:52:06;;;;;;;5.20;4.80;;;32.60;73.60;;;;;;5150575;27;20709;-80
2022/08/01 12:55:04;;;;;;;3.90;3.60;;;32.40;74.30;;;;;;5145994;27;20674;-81
2022/08/01 12:57:31;;;;;;;4.50;4.10;;;32.10;73.30;;;;;;5148177;27;20759;-81
2022/08/01 13:00:14;;;;;;;4.70;4.30;;;31.80;74.00;;;;;;5147362;27;20617;-81
2022/08/01 13:02:43;;;;;;;3.97;3.67;;;31.50;75.20;;;;;;5147298;27;21166;-81